sensor_id;sensor_type;location;lat;lon;timestamp;P1;durP1;ratioP1;P2;durP2;ratioP2
13933;SDS011;7039;52.168;9.866;2023-01-23T00:00:05;29.57;;;12.90;;
13933;SDS011;7039;52.168;9.866;2023-01-23T00:02:35;26.10;;;13.27;;
13933;SDS011;7039;52.168;9.866;2023-01-23T00:05:02;28.13;;;13.10;;
13933;SDS011;7039;52.168;9.866;2023-01-23T00:07:29;26.60;;;12.47;;
13933;SDS011;7039;52.168;9.866;2023-01-23T00:09:56;25.73;;;12.03;;
13933;SDS011;7039;52.168;9.866;2023-01-23T00:12:22;26.50;;;13.30;;
13933;SDS011;7039;52.168;9.866;2023-01-23T00:14:49;30.00;;;12.83;;
13933;SDS011;7039;52.168;9.866;2023-01-23T00:17:16;24.40;;;12.70;;
13933;SDS011;7039;52.168;9.866;2023-01-23T00:19:42;26.20;;;12.83;;
13933;SDS011;7039;52.168;9.866;2023-01-23T00:22:09;27.27;;;12.43;;
13933;SDS011;7039;52.168;9.866;2023-01-23T00:24:37;28.13;;;13.23;;
13933;SDS011;7039;52.168;9.866;2023-01-23T00:27:03;28.47;;;12.90;;
13933;SDS011;7039;52.168;9.866;2023-01-23T00:29:30;24.17;;;12.57;;
13933;SDS011;7039;52.168;9.866;2023-01-23T00:31:56;24.53;;;13.10;;
13933;SDS011;7039;52.168;9.866;2023-01-23T00:34:23;26.17;;;12.67;;
13933;SDS011;7039;52.168;9.866;2023-01-23T00:36:49;28.37;;;12.83;;
13933;SDS011;7039;52.168;9.866;2023-01-23T00:39:17;28.63;;;12.17;;
13933;SDS011;7039;52.168;9.866;2023-01-23T00:41:47;31.83;;;13.97;;
13933;SDS011;7039;52.168;9.866;2023-01-23T00:44:15;31.20;;;14.33;;
13933;SDS011;7039;52.168;9.866;2023-01-23T00:46:41;31.93;;;14.57;;
13933;SDS011;7039;52.168;9.866;2023-01-23T00:49:08;27.67;;;12.80;;
13933;SDS011;7039;52.168;9.866;2023-01-23T00:51:34;24.50;;;12.70;;
13933;SDS011;7039;52.168;9.866;2023-01-23T00:54:01;25.30;;;12.60;;
13933;SDS011;7039;52.168;9.866;2023-01-23T00:56:28;30.43;;;13.30;;
13933;SDS011;7039;52.168;9.866;2023-01-23T00:58:56;29.43;;;12.93;;
13933;SDS011;7039;52.168;9.866;2023-01-23T01:01:22;29.37;;;13.40;;
13933;SDS011;7039;52.168;9.866;2023-01-23T01:03:50;30.27;;;14.00;;
13933;SDS011;7039;52.168;9.866;2023-01-23T01:06:16;31.90;;;14.47;;
13933;SDS011;7039;52.168;9.866;2023-01-23T01:08:43;30.50;;;13.33;;
13933;SDS011;7039;52.168;9.866;2023-01-23T01:11:09;30.30;;;13.40;;
13933;SDS011;7039;52.168;9.866;2023-01-23T01:13:36;30.20;;;13.00;;
13933;SDS011;7039;52.168;9.866;2023-01-23T01:16:05;24.23;;;11.83;;
13933;SDS011;7039;52.168;9.866;2023-01-23T01:18:32;27.87;;;12.27;;
13933;SDS011;7039;52.168;9.866;2023-01-23T01:20:59;25.93;;;12.70;;
13933;SDS011;7039;52.168;9.866;2023-01-23T01:23:26;26.47;;;12.57;;
13933;SDS011;7039;52.168;9.866;2023-01-23T01:25:52;26.90;;;12.10;;
13933;SDS011;7039;52.168;9.866;2023-01-23T01:28:23;27.53;;;12.70;;
13933;SDS011;7039;52.168;9.866;2023-01-23T01:30:51;23.23;;;12.13;;
13933;SDS011;7039;52.168;9.866;2023-01-23T01:33:19;24.63;;;12.00;;
13933;SDS011;7039;52.168;9.866;2023-01-23T01:35:45;29.27;;;12.67;;
13933;SDS011;7039;52.168;9.866;2023-01-23T01:38:11;28.70;;;12.77;;
13933;SDS011;7039;52.168;9.866;2023-01-23T01:40:38;27.30;;;12.97;;
13933;SDS011;7039;52.168;9.866;2023-01-23T01:43:06;25.53;;;13.00;;
13933;SDS011;7039;52.168;9.866;2023-01-23T01:48:39;23.67;;;12.00;;
13933;SDS011;7039;52.168;9.866;2023-01-23T01:51:10;24.70;;;11.50;;
13933;SDS011;7039;52.168;9.866;2023-01-23T01:53:43;29.67;;;13.10;;
13933;SDS011;7039;52.168;9.866;2023-01-23T01:56:13;26.63;;;12.17;;
13933;SDS011;7039;52.168;9.866;2023-01-23T01:58:43;24.93;;;12.53;;
13933;SDS011;7039;52.168;9.866;2023-01-23T02:01:12;29.53;;;13.00;;
13933;SDS011;7039;52.168;9.866;2023-01-23T02:03:40;31.87;;;13.43;;
13933;SDS011;7039;52.168;9.866;2023-01-23T02:06:08;26.90;;;12.20;;
13933;SDS011;7039;52.168;9.866;2023-01-23T02:08:40;27.97;;;12.93;;
13933;SDS011;7039;52.168;9.866;2023-01-23T02:11:12;30.87;;;12.87;;
13933;SDS011;7039;52.168;9.866;2023-01-23T02:13:40;28.00;;;13.03;;
13933;SDS011;7039;52.168;9.866;2023-01-23T02:16:09;27.87;;;12.93;;
13933;SDS011;7039;52.168;9.866;2023-01-23T02:18:38;27.83;;;12.67;;
13933;SDS011;7039;52.168;9.866;2023-01-23T02:21:09;27.10;;;13.03;;
13933;SDS011;7039;52.168;9.866;2023-01-23T02:23:40;33.10;;;12.80;;
13933;SDS011;7039;52.168;9.866;2023-01-23T02:26:15;27.60;;;12.73;;
13933;SDS011;7039;52.168;9.866;2023-01-23T02:28:47;25.03;;;12.73;;
13933;SDS011;7039;52.168;9.866;2023-01-23T02:31:15;27.20;;;13.07;;
13933;SDS011;7039;52.168;9.866;2023-01-23T02:33:44;27.33;;;12.47;;
13933;SDS011;7039;52.168;9.866;2023-01-23T02:36:13;28.00;;;13.30;;
13933;SDS011;7039;52.168;9.866;2023-01-23T02:38:43;27.90;;;13.07;;
13933;SDS011;7039;52.168;9.866;2023-01-23T02:41:16;28.23;;;12.37;;
13933;SDS011;7039;52.168;9.866;2023-01-23T02:43:45;31.97;;;13.50;;
13933;SDS011;7039;52.168;9.866;2023-01-23T02:46:14;28.97;;;12.97;;
13933;SDS011;7039;52.168;9.866;2023-01-23T02:48:43;31.63;;;13.30;;
13933;SDS011;7039;52.168;9.866;2023-01-23T02:51:09;24.30;;;13.03;;
13933;SDS011;7039;52.168;9.866;2023-01-23T02:53:37;25.83;;;13.53;;
13933;SDS011;7039;52.168;9.866;2023-01-23T02:56:04;26.73;;;13.30;;
13933;SDS011;7039;52.168;9.866;2023-01-23T02:58:32;29.63;;;13.33;;
13933;SDS011;7039;52.168;9.866;2023-01-23T03:01:16;28.77;;;13.60;;
13933;SDS011;7039;52.168;9.866;2023-01-23T03:03:43;28.10;;;13.50;;
13933;SDS011;7039;52.168;9.866;2023-01-23T03:06:09;31.27;;;13.73;;
13933;SDS011;7039;52.168;9.866;2023-01-23T03:08:36;31.57;;;13.17;;
13933;SDS011;7039;52.168;9.866;2023-01-23T03:11:11;30.17;;;13.23;;
13933;SDS011;7039;52.168;9.866;2023-01-23T03:13:41;32.43;;;14.03;;
13933;SDS011;7039;52.168;9.866;2023-01-23T03:16:07;30.83;;;13.87;;
13933;SDS011;7039;52.168;9.866;2023-01-23T03:18:35;30.87;;;13.23;;
13933;SDS011;7039;52.168;9.866;2023-01-23T03:21:02;30.93;;;13.43;;
13933;SDS011;7039;52.168;9.866;2023-01-23T03:23:30;30.67;;;12.83;;
13933;SDS011;7039;52.168;9.866;2023-01-23T03:25:57;29.50;;;13.87;;
13933;SDS011;7039;52.168;9.866;2023-01-23T03:28:24;32.30;;;13.83;;
13933;SDS011;7039;52.168;9.866;2023-01-23T03:31:10;32.87;;;13.90;;
13933;SDS011;7039;52.168;9.866;2023-01-23T03:33:37;31.63;;;13.80;;
13933;SDS011;7039;52.168;9.866;2023-01-23T03:36:07;33.43;;;14.53;;
13933;SDS011;7039;52.168;9.866;2023-01-23T03:38:34;33.30;;;14.10;;
13933;SDS011;7039;52.168;9.866;2023-01-23T03:41:01;35.30;;;13.60;;
13933;SDS011;7039;52.168;9.866;2023-01-23T03:43:45;25.67;;;12.23;;
13933;SDS011;7039;52.168;9.866;2023-01-23T03:46:13;31.23;;;13.60;;
13933;SDS011;7039;52.168;9.866;2023-01-23T03:48:39;37.37;;;13.90;;
13933;SDS011;7039;52.168;9.866;2023-01-23T03:51:06;30.23;;;13.57;;
13933;SDS011;7039;52.168;9.866;2023-01-23T03:53:32;34.10;;;13.03;;
13933;SDS011;7039;52.168;9.866;2023-01-23T03:55:59;31.07;;;13.30;;
13933;SDS011;7039;52.168;9.866;2023-01-23T03:58:25;34.00;;;13.80;;
13933;SDS011;7039;52.168;9.866;2023-01-23T04:00:52;31.70;;;13.20;;
13933;SDS011;7039;52.168;9.866;2023-01-23T04:03:20;38.03;;;13.53;;
13933;SDS011;7039;52.168;9.866;2023-01-23T04:05:47;33.70;;;13.67;;
13933;SDS011;7039;52.168;9.866;2023-01-23T04:08:13;38.47;;;15.27;;
13933;SDS011;7039;52.168;9.866;2023-01-23T04:10:39;33.10;;;14.13;;
13933;SDS011;7039;52.168;9.866;2023-01-23T04:13:07;32.67;;;15.27;;
13933;SDS011;7039;52.168;9.866;2023-01-23T04:15:33;33.53;;;13.63;;
13933;SDS011;7039;52.168;9.866;2023-01-23T04:18:00;34.10;;;13.43;;
13933;SDS011;7039;52.168;9.866;2023-01-23T04:20:28;34.53;;;13.37;;
13933;SDS011;7039;52.168;9.866;2023-01-23T04:22:54;34.10;;;13.83;;
13933;SDS011;7039;52.168;9.866;2023-01-23T04:25:21;35.20;;;13.97;;
13933;SDS011;7039;52.168;9.866;2023-01-23T04:27:48;33.87;;;13.07;;
13933;SDS011;7039;52.168;9.866;2023-01-23T04:30:14;37.37;;;15.43;;
13933;SDS011;7039;52.168;9.866;2023-01-23T04:32:41;36.00;;;15.10;;
13933;SDS011;7039;52.168;9.866;2023-01-23T04:35:08;38.00;;;14.77;;
13933;SDS011;7039;52.168;9.866;2023-01-23T04:37:36;35.70;;;13.73;;
13933;SDS011;7039;52.168;9.866;2023-01-23T04:40:02;33.70;;;13.87;;
13933;SDS011;7039;52.168;9.866;2023-01-23T04:42:29;36.97;;;14.70;;
13933;SDS011;7039;52.168;9.866;2023-01-23T04:44:56;33.93;;;14.27;;
13933;SDS011;7039;52.168;9.866;2023-01-23T04:47:22;31.47;;;14.17;;
13933;SDS011;7039;52.168;9.866;2023-01-23T04:49:49;32.40;;;13.63;;
13933;SDS011;7039;52.168;9.866;2023-01-23T04:52:15;31.20;;;13.47;;
13933;SDS011;7039;52.168;9.866;2023-01-23T04:54:43;32.90;;;14.03;;
13933;SDS011;7039;52.168;9.866;2023-01-23T04:57:09;27.83;;;12.97;;
13933;SDS011;7039;52.168;9.866;2023-01-23T04:59:36;33.87;;;14.60;;
13933;SDS011;7039;52.168;9.866;2023-01-23T05:02:02;35.33;;;14.97;;
13933;SDS011;7039;52.168;9.866;2023-01-23T05:04:29;32.43;;;13.80;;
13933;SDS011;7039;52.168;9.866;2023-01-23T05:06:55;32.73;;;14.33;;
13933;SDS011;7039;52.168;9.866;2023-01-23T05:09:22;33.67;;;13.93;;
13933;SDS011;7039;52.168;9.866;2023-01-23T05:11:49;32.63;;;14.47;;
13933;SDS011;7039;52.168;9.866;2023-01-23T05:14:16;29.87;;;13.13;;
13933;SDS011;7039;52.168;9.866;2023-01-23T05:16:43;32.53;;;13.27;;
13933;SDS011;7039;52.168;9.866;2023-01-23T05:19:09;32.43;;;13.60;;
13933;SDS011;7039;52.168;9.866;2023-01-23T05:21:36;34.50;;;14.53;;
13933;SDS011;7039;52.168;9.866;2023-01-23T05:24:02;31.03;;;14.13;;
13933;SDS011;7039;52.168;9.866;2023-01-23T05:26:29;32.17;;;14.53;;
13933;SDS011;7039;52.168;9.866;2023-01-23T05:28:57;29.83;;;13.57;;
13933;SDS011;7039;52.168;9.866;2023-01-23T05:31:23;31.63;;;13.93;;
13933;SDS011;7039;52.168;9.866;2023-01-23T05:33:50;34.03;;;14.43;;
13933;SDS011;7039;52.168;9.866;2023-01-23T05:36:16;30.30;;;13.23;;
13933;SDS011;7039;52.168;9.866;2023-01-23T05:38:43;31.63;;;14.50;;
13933;SDS011;7039;52.168;9.866;2023-01-23T05:41:09;34.57;;;14.80;;
13933;SDS011;7039;52.168;9.866;2023-01-23T05:43:36;40.23;;;15.13;;
13933;SDS011;7039;52.168;9.866;2023-01-23T05:46:03;31.47;;;14.57;;
13933;SDS011;7039;52.168;9.866;2023-01-23T05:48:30;33.93;;;15.50;;
13933;SDS011;7039;52.168;9.866;2023-01-23T05:50:56;34.30;;;14.93;;
13933;SDS011;7039;52.168;9.866;2023-01-23T05:53:23;36.63;;;14.33;;
13933;SDS011;7039;52.168;9.866;2023-01-23T05:55:49;31.50;;;13.47;;
13933;SDS011;7039;52.168;9.866;2023-01-23T05:58:16;35.57;;;15.40;;
13933;SDS011;7039;52.168;9.866;2023-01-23T06:00:42;30.43;;;14.10;;
13933;SDS011;7039;52.168;9.866;2023-01-23T06:03:10;32.67;;;14.30;;
13933;SDS011;7039;52.168;9.866;2023-01-23T06:05:36;33.80;;;14.13;;
13933;SDS011;7039;52.168;9.866;2023-01-23T06:08:05;31.63;;;14.47;;
13933;SDS011;7039;52.168;9.866;2023-01-23T06:10:31;37.70;;;15.83;;
13933;SDS011;7039;52.168;9.866;2023-01-23T06:12:58;34.43;;;13.97;;
13933;SDS011;7039;52.168;9.866;2023-01-23T06:15:24;39.70;;;14.30;;
13933;SDS011;7039;52.168;9.866;2023-01-23T06:17:51;50.03;;;15.40;;
13933;SDS011;7039;52.168;9.866;2023-01-23T06:20:19;34.27;;;14.37;;
13933;SDS011;7039;52.168;9.866;2023-01-23T06:22:45;35.60;;;14.30;;
13933;SDS011;7039;52.168;9.866;2023-01-23T06:25:12;32.37;;;15.53;;
13933;SDS011;7039;52.168;9.866;2023-01-23T06:27:38;35.53;;;14.30;;
13933;SDS011;7039;52.168;9.866;2023-01-23T06:30:05;32.70;;;14.73;;
13933;SDS011;7039;52.168;9.866;2023-01-23T06:32:33;28.93;;;13.27;;
13933;SDS011;7039;52.168;9.866;2023-01-23T06:34:59;27.63;;;13.10;;
13933;SDS011;7039;52.168;9.866;2023-01-23T06:37:27;28.90;;;14.17;;
13933;SDS011;7039;52.168;9.866;2023-01-23T06:39:54;33.57;;;13.83;;
13933;SDS011;7039;52.168;9.866;2023-01-23T06:42:20;30.17;;;14.53;;
13933;SDS011;7039;52.168;9.866;2023-01-23T06:44:47;33.03;;;14.83;;
13933;SDS011;7039;52.168;9.866;2023-01-23T06:47:13;30.57;;;13.50;;
13933;SDS011;7039;52.168;9.866;2023-01-23T06:49:40;31.70;;;13.70;;
13933;SDS011;7039;52.168;9.866;2023-01-23T06:52:07;33.50;;;14.43;;
13933;SDS011;7039;52.168;9.866;2023-01-23T06:54:35;31.47;;;14.07;;
13933;SDS011;7039;52.168;9.866;2023-01-23T06:57:02;30.50;;;13.30;;
13933;SDS011;7039;52.168;9.866;2023-01-23T06:59:28;32.90;;;14.63;;
13933;SDS011;7039;52.168;9.866;2023-01-23T07:01:56;33.63;;;15.33;;
13933;SDS011;7039;52.168;9.866;2023-01-23T07:04:22;28.23;;;13.77;;
13933;SDS011;7039;52.168;9.866;2023-01-23T07:06:49;32.43;;;13.97;;
13933;SDS011;7039;52.168;9.866;2023-01-23T07:09:15;33.50;;;13.90;;
13933;SDS011;7039;52.168;9.866;2023-01-23T07:11:43;34.27;;;14.30;;
13933;SDS011;7039;52.168;9.866;2023-01-23T07:14:10;37.20;;;15.07;;
13933;SDS011;7039;52.168;9.866;2023-01-23T07:16:36;32.33;;;13.73;;
13933;SDS011;7039;52.168;9.866;2023-01-23T07:19:03;36.90;;;15.10;;
13933;SDS011;7039;52.168;9.866;2023-01-23T07:21:29;34.50;;;15.07;;
13933;SDS011;7039;52.168;9.866;2023-01-23T07:23:56;32.33;;;14.73;;
13933;SDS011;7039;52.168;9.866;2023-01-23T07:26:23;34.83;;;15.13;;
13933;SDS011;7039;52.168;9.866;2023-01-23T07:28:51;38.60;;;15.90;;
13933;SDS011;7039;52.168;9.866;2023-01-23T07:31:17;34.33;;;15.43;;
13933;SDS011;7039;52.168;9.866;2023-01-23T07:33:44;31.90;;;14.90;;
13933;SDS011;7039;52.168;9.866;2023-01-23T07:36:11;38.17;;;14.67;;
13933;SDS011;7039;52.168;9.866;2023-01-23T07:38:39;36.40;;;15.33;;
13933;SDS011;7039;52.168;9.866;2023-01-23T07:41:06;37.60;;;16.57;;
13933;SDS011;7039;52.168;9.866;2023-01-23T07:43:32;42.03;;;15.93;;
13933;SDS011;7039;52.168;9.866;2023-01-23T07:46:00;35.07;;;15.03;;
13933;SDS011;7039;52.168;9.866;2023-01-23T07:48:27;40.13;;;16.03;;
13933;SDS011;7039;52.168;9.866;2023-01-23T07:50:54;33.47;;;14.60;;
13933;SDS011;7039;52.168;9.866;2023-01-23T07:53:20;35.00;;;15.20;;
13933;SDS011;7039;52.168;9.866;2023-01-23T07:55:47;39.63;;;15.77;;
13933;SDS011;7039;52.168;9.866;2023-01-23T07:58:13;39.80;;;16.27;;
13933;SDS011;7039;52.168;9.866;2023-01-23T08:00:40;38.40;;;16.27;;
13933;SDS011;7039;52.168;9.866;2023-01-23T08:03:08;38.40;;;15.13;;
13933;SDS011;7039;52.168;9.866;2023-01-23T08:05:34;35.77;;;15.93;;
13933;SDS011;7039;52.168;9.866;2023-01-23T08:08:01;32.97;;;15.17;;
13933;SDS011;7039;52.168;9.866;2023-01-23T08:10:27;39.70;;;15.57;;
13933;SDS011;7039;52.168;9.866;2023-01-23T08:12:54;41.80;;;15.97;;
13933;SDS011;7039;52.168;9.866;2023-01-23T08:15:20;36.27;;;15.07;;
13933;SDS011;7039;52.168;9.866;2023-01-23T08:17:46;39.93;;;15.43;;
13933;SDS011;7039;52.168;9.866;2023-01-23T08:20:14;42.20;;;15.53;;
13933;SDS011;7039;52.168;9.866;2023-01-23T08:22:41;36.50;;;14.60;;
13933;SDS011;7039;52.168;9.866;2023-01-23T08:25:08;42.93;;;15.30;;
13933;SDS011;7039;52.168;9.866;2023-01-23T08:27:36;43.47;;;16.20;;
13933;SDS011;7039;52.168;9.866;2023-01-23T08:30:03;40.73;;;16.37;;
13933;SDS011;7039;52.168;9.866;2023-01-23T08:32:30;41.87;;;15.17;;
13933;SDS011;7039;52.168;9.866;2023-01-23T08:34:59;47.93;;;15.50;;
13933;SDS011;7039;52.168;9.866;2023-01-23T08:37:28;44.73;;;16.23;;
13933;SDS011;7039;52.168;9.866;2023-01-23T08:39:54;46.80;;;17.17;;
13933;SDS011;7039;52.168;9.866;2023-01-23T08:42:20;43.17;;;15.23;;
13933;SDS011;7039;52.168;9.866;2023-01-23T08:44:47;43.80;;;16.97;;
13933;SDS011;7039;52.168;9.866;2023-01-23T08:47:13;42.17;;;16.33;;
13933;SDS011;7039;52.168;9.866;2023-01-23T08:49:40;43.73;;;17.80;;
13933;SDS011;7039;52.168;9.866;2023-01-23T08:52:06;39.63;;;16.53;;
13933;SDS011;7039;52.168;9.866;2023-01-23T08:54:34;41.87;;;15.90;;
13933;SDS011;7039;52.168;9.866;2023-01-23T08:57:00;44.43;;;16.17;;
13933;SDS011;7039;52.168;9.866;2023-01-23T08:59:27;46.00;;;16.80;;
13933;SDS011;7039;52.168;9.866;2023-01-23T09:01:53;42.77;;;15.83;;
13933;SDS011;7039;52.168;9.866;2023-01-23T09:04:20;43.80;;;16.67;;
13933;SDS011;7039;52.168;9.866;2023-01-23T09:06:46;35.40;;;15.47;;
13933;SDS011;7039;52.168;9.866;2023-01-23T09:09:13;38.70;;;17.30;;
13933;SDS011;7039;52.168;9.866;2023-01-23T09:11:41;36.43;;;14.63;;
13933;SDS011;7039;52.168;9.866;2023-01-23T09:14:07;37.93;;;15.80;;
13933;SDS011;7039;52.168;9.866;2023-01-23T09:16:33;34.93;;;16.37;;
13933;SDS011;7039;52.168;9.866;2023-01-23T09:19:00;38.43;;;16.80;;
13933;SDS011;7039;52.168;9.866;2023-01-23T09:21:26;44.80;;;16.70;;
13933;SDS011;7039;52.168;9.866;2023-01-23T09:23:53;38.40;;;16.70;;
13933;SDS011;7039;52.168;9.866;2023-01-23T09:26:19;35.20;;;15.93;;
13933;SDS011;7039;52.168;9.866;2023-01-23T09:28:47;35.60;;;16.00;;
13933;SDS011;7039;52.168;9.866;2023-01-23T09:31:13;33.53;;;14.60;;
13933;SDS011;7039;52.168;9.866;2023-01-23T09:33:40;35.43;;;15.63;;
13933;SDS011;7039;52.168;9.866;2023-01-23T09:36:07;31.73;;;14.20;;
13933;SDS011;7039;52.168;9.866;2023-01-23T09:38:34;32.60;;;14.50;;
13933;SDS011;7039;52.168;9.866;2023-01-23T09:41:06;31.53;;;13.93;;
13933;SDS011;7039;52.168;9.866;2023-01-23T09:43:37;28.27;;;14.03;;
13933;SDS011;7039;52.168;9.866;2023-01-23T09:46:12;29.60;;;13.83;;
13933;SDS011;7039;52.168;9.866;2023-01-23T09:48:43;28.87;;;14.47;;
13933;SDS011;7039;52.168;9.866;2023-01-23T09:51:12;30.90;;;14.50;;
13933;SDS011;7039;52.168;9.866;2023-01-23T09:53:45;32.00;;;14.20;;
13933;SDS011;7039;52.168;9.866;2023-01-23T09:56:16;33.27;;;14.77;;
13933;SDS011;7039;52.168;9.866;2023-01-23T09:58:56;35.00;;;14.63;;
13933;SDS011;7039;52.168;9.866;2023-01-23T10:01:27;28.63;;;14.77;;
13933;SDS011;7039;52.168;9.866;2023-01-23T10:03:56;31.87;;;14.17;;
13933;SDS011;7039;52.168;9.866;2023-01-23T10:06:24;30.73;;;14.43;;
13933;SDS011;7039;52.168;9.866;2023-01-23T10:08:57;38.20;;;15.83;;
13933;SDS011;7039;52.168;9.866;2023-01-23T10:11:41;35.20;;;14.30;;
13933;SDS011;7039;52.168;9.866;2023-01-23T10:14:22;36.53;;;14.33;;
13933;SDS011;7039;52.168;9.866;2023-01-23T10:17:07;33.70;;;14.37;;
13933;SDS011;7039;52.168;9.866;2023-01-23T10:19:43;29.90;;;13.17;;
13933;SDS011;7039;52.168;9.866;2023-01-23T10:22:34;35.37;;;14.90;;
13933;SDS011;7039;52.168;9.866;2023-01-23T10:25:08;44.77;;;14.50;;
13933;SDS011;7039;52.168;9.866;2023-01-23T10:27:40;41.20;;;15.43;;
13933;SDS011;7039;52.168;9.866;2023-01-23T10:30:16;36.27;;;15.03;;
13933;SDS011;7039;52.168;9.866;2023-01-23T10:32:55;41.03;;;14.73;;
13933;SDS011;7039;52.168;9.866;2023-01-23T10:35:23;41.83;;;15.30;;
13933;SDS011;7039;52.168;9.866;2023-01-23T10:37:56;38.97;;;15.27;;
13933;SDS011;7039;52.168;9.866;2023-01-23T10:40:27;36.63;;;14.50;;
13933;SDS011;7039;52.168;9.866;2023-01-23T10:43:11;34.30;;;13.80;;
13933;SDS011;7039;52.168;9.866;2023-01-23T10:45:39;35.80;;;14.53;;
13933;SDS011;7039;52.168;9.866;2023-01-23T10:51:22;37.93;;;13.43;;
13933;SDS011;7039;52.168;9.866;2023-01-23T10:54:03;35.53;;;13.07;;
13933;SDS011;7039;52.168;9.866;2023-01-23T10:56:32;32.23;;;13.07;;
13933;SDS011;7039;52.168;9.866;2023-01-23T10:59:00;35.03;;;13.73;;
13933;SDS011;7039;52.168;9.866;2023-01-23T11:01:28;36.50;;;14.93;;
13933;SDS011;7039;52.168;9.866;2023-01-23T11:04:02;29.70;;;13.60;;
13933;SDS011;7039;52.168;9.866;2023-01-23T11:06:34;33.43;;;13.70;;
13933;SDS011;7039;52.168;9.866;2023-01-23T11:09:01;34.50;;;14.50;;
13933;SDS011;7039;52.168;9.866;2023-01-23T11:11:29;36.90;;;14.43;;
13933;SDS011;7039;52.168;9.866;2023-01-23T11:14:06;37.50;;;14.57;;
13933;SDS011;7039;52.168;9.866;2023-01-23T11:16:36;35.27;;;13.83;;
13933;SDS011;7039;52.168;9.866;2023-01-23T11:19:09;34.77;;;13.47;;
13933;SDS011;7039;52.168;9.866;2023-01-23T11:21:51;36.73;;;14.33;;
13933;SDS011;7039;52.168;9.866;2023-01-23T11:24:20;31.73;;;13.50;;
13933;SDS011;7039;52.168;9.866;2023-01-23T11:26:57;34.57;;;13.67;;
13933;SDS011;7039;52.168;9.866;2023-01-23T11:29:25;33.27;;;13.50;;
13933;SDS011;7039;52.168;9.866;2023-01-23T11:31:54;31.87;;;13.10;;
13933;SDS011;7039;52.168;9.866;2023-01-23T11:34:28;31.10;;;13.43;;
13933;SDS011;7039;52.168;9.866;2023-01-23T11:37:01;28.03;;;12.13;;
13933;SDS011;7039;52.168;9.866;2023-01-23T11:39:36;33.80;;;13.47;;
13933;SDS011;7039;52.168;9.866;2023-01-23T11:42:10;32.83;;;13.27;;
13933;SDS011;7039;52.168;9.866;2023-01-23T11:44:38;33.93;;;13.67;;
13933;SDS011;7039;52.168;9.866;2023-01-23T11:50:14;33.47;;;13.90;;
13933;SDS011;7039;52.168;9.866;2023-01-23T11:52:55;28.73;;;12.47;;
13933;SDS011;7039;52.168;9.866;2023-01-23T11:55:32;34.37;;;13.97;;
13933;SDS011;7039;52.168;9.866;2023-01-23T11:58:13;34.47;;;13.67;;
13933;SDS011;7039;52.168;9.866;2023-01-23T12:00:52;32.90;;;13.60;;
13933;SDS011;7039;52.168;9.866;2023-01-23T12:03:35;30.60;;;13.23;;
13933;SDS011;7039;52.168;9.866;2023-01-23T12:06:38;34.37;;;14.37;;
13933;SDS011;7039;52.168;9.866;2023-01-23T12:09:11;33.40;;;13.70;;
13933;SDS011;7039;52.168;9.866;2023-01-23T12:11:46;33.10;;;14.47;;
13933;SDS011;7039;52.168;9.866;2023-01-23T12:14:24;34.57;;;14.30;;
13933;SDS011;7039;52.168;9.866;2023-01-23T12:17:01;35.87;;;15.07;;
13933;SDS011;7039;52.168;9.866;2023-01-23T12:19:38;36.80;;;14.87;;
13933;SDS011;7039;52.168;9.866;2023-01-23T12:22:28;34.97;;;13.33;;
13933;SDS011;7039;52.168;9.866;2023-01-23T12:25:04;39.83;;;15.37;;
13933;SDS011;7039;52.168;9.866;2023-01-23T12:27:44;37.63;;;14.70;;
13933;SDS011;7039;52.168;9.866;2023-01-23T12:30:22;39.80;;;15.63;;
13933;SDS011;7039;52.168;9.866;2023-01-23T12:33:10;39.30;;;14.40;;
13933;SDS011;7039;52.168;9.866;2023-01-23T12:35:47;38.30;;;15.27;;
13933;SDS011;7039;52.168;9.866;2023-01-23T12:38:27;37.70;;;15.27;;
13933;SDS011;7039;52.168;9.866;2023-01-23T12:41:04;45.33;;;17.70;;
13933;SDS011;7039;52.168;9.866;2023-01-23T12:43:37;49.53;;;18.23;;
13933;SDS011;7039;52.168;9.866;2023-01-23T12:46:13;44.60;;;15.97;;
13933;SDS011;7039;52.168;9.866;2023-01-23T12:48:45;41.33;;;14.93;;
13933;SDS011;7039;52.168;9.866;2023-01-23T12:51:17;38.20;;;14.80;;
13933;SDS011;7039;52.168;9.866;2023-01-23T12:53:49;42.47;;;15.07;;
13933;SDS011;7039;52.168;9.866;2023-01-23T12:56:24;37.57;;;14.43;;
13933;SDS011;7039;52.168;9.866;2023-01-23T12:58:55;41.30;;;15.37;;
13933;SDS011;7039;52.168;9.866;2023-01-23T13:01:37;36.43;;;15.23;;
13933;SDS011;7039;52.168;9.866;2023-01-23T13:04:14;41.30;;;15.37;;
13933;SDS011;7039;52.168;9.866;2023-01-23T13:06:52;41.10;;;15.00;;
13933;SDS011;7039;52.168;9.866;2023-01-23T13:09:31;43.07;;;15.63;;
13933;SDS011;7039;52.168;9.866;2023-01-23T13:12:09;35.77;;;14.40;;
13933;SDS011;7039;52.168;9.866;2023-01-23T13:14:43;41.23;;;14.93;;
13933;SDS011;7039;52.168;9.866;2023-01-23T13:20:18;42.03;;;14.43;;
13933;SDS011;7039;52.168;9.866;2023-01-23T13:28:50;41.97;;;14.57;;
13933;SDS011;7039;52.168;9.866;2023-01-23T13:31:23;37.90;;;14.47;;
13933;SDS011;7039;52.168;9.866;2023-01-23T13:33:57;35.27;;;14.37;;
13933;SDS011;7039;52.168;9.866;2023-01-23T13:36:28;37.10;;;13.47;;
13933;SDS011;7039;52.168;9.866;2023-01-23T13:39:03;34.83;;;13.17;;
13933;SDS011;7039;52.168;9.866;2023-01-23T13:41:47;37.17;;;13.73;;
13933;SDS011;7039;52.168;9.866;2023-01-23T13:44:16;30.90;;;13.50;;
13933;SDS011;7039;52.168;9.866;2023-01-23T13:47:07;35.60;;;13.07;;
13933;SDS011;7039;52.168;9.866;2023-01-23T13:50:00;36.17;;;13.80;;
13933;SDS011;7039;52.168;9.866;2023-01-23T13:52:35;34.67;;;13.77;;
13933;SDS011;7039;52.168;9.866;2023-01-23T13:55:22;30.03;;;12.13;;
13933;SDS011;7039;52.168;9.866;2023-01-23T13:58:10;33.27;;;12.97;;
13933;SDS011;7039;52.168;9.866;2023-01-23T14:00:38;32.17;;;13.97;;
13933;SDS011;7039;52.168;9.866;2023-01-23T14:03:16;34.10;;;13.67;;
13933;SDS011;7039;52.168;9.866;2023-01-23T14:06:09;33.97;;;13.43;;
13933;SDS011;7039;52.168;9.866;2023-01-23T14:08:45;27.40;;;12.43;;
13933;SDS011;7039;52.168;9.866;2023-01-23T14:11:13;29.40;;;12.70;;
13933;SDS011;7039;52.168;9.866;2023-01-23T14:13:46;27.97;;;12.70;;
13933;SDS011;7039;52.168;9.866;2023-01-23T14:16:14;33.43;;;13.97;;
13933;SDS011;7039;52.168;9.866;2023-01-23T14:18:48;30.87;;;13.27;;
13933;SDS011;7039;52.168;9.866;2023-01-23T14:21:20;33.27;;;13.67;;
13933;SDS011;7039;52.168;9.866;2023-01-23T14:23:49;32.00;;;13.50;;
13933;SDS011;7039;52.168;9.866;2023-01-23T14:26:18;36.37;;;14.20;;
13933;SDS011;7039;52.168;9.866;2023-01-23T14:28:55;32.17;;;13.63;;
13933;SDS011;7039;52.168;9.866;2023-01-23T14:31:25;31.53;;;14.73;;
13933;SDS011;7039;52.168;9.866;2023-01-23T14:33:58;31.40;;;15.13;;
13933;SDS011;7039;52.168;9.866;2023-01-23T14:36:27;37.50;;;16.47;;
13933;SDS011;7039;52.168;9.866;2023-01-23T14:38:54;27.77;;;14.00;;
13933;SDS011;7039;52.168;9.866;2023-01-23T14:41:24;30.10;;;14.10;;
13933;SDS011;7039;52.168;9.866;2023-01-23T14:43:56;32.73;;;15.23;;
13933;SDS011;7039;52.168;9.866;2023-01-23T14:46:31;30.50;;;14.73;;
13933;SDS011;7039;52.168;9.866;2023-01-23T14:49:01;29.07;;;13.57;;
13933;SDS011;7039;52.168;9.866;2023-01-23T14:51:30;30.97;;;13.73;;
13933;SDS011;7039;52.168;9.866;2023-01-23T14:53:57;27.03;;;12.43;;
13933;SDS011;7039;52.168;9.866;2023-01-23T14:56:26;29.10;;;14.20;;
13933;SDS011;7039;52.168;9.866;2023-01-23T14:58:57;28.33;;;13.10;;
13933;SDS011;7039;52.168;9.866;2023-01-23T15:01:27;32.43;;;17.93;;
13933;SDS011;7039;52.168;9.866;2023-01-23T15:03:54;30.70;;;14.40;;
13933;SDS011;7039;52.168;9.866;2023-01-23T15:06:22;27.07;;;14.00;;